Terminal Aerodrome Forecast
Issued by NWS

Home | Current Version | Previous Version | Graphics & Text | Print | Product List | Glossary On
Versions: 1 2 3 4 5 6 7 8 9 10 11 12 13 14 15 16 17 18 19 20 21 22 23 24 25 26 27
000
FTUS43 KUNR 230300 AAA
TAFGCC
TAF AMD
KGCC 230330Z 2304/2324 10010KT P6SM -TSRA SCT050CB OVC100
     FM230600 11010KT P6SM -SHRA OVC015
     FM231200 19008KT P6SM SCT015 BKN025=

USA.gov is the U.S. government's official web portal to all federal, state and local government web resources and services.